Time;durP1;ratioP1;P1;durP2;ratioP2;P2;SDS_P1;SDS_P2;PMS_P1;PMS_P2;Temp;Humidity;BMP_temperature;BMP_pressure;BME280_temperature;BME280_humidity;BME280_pressure;Samples;Min_cycle;Max_cycle;Signal;HPM_P1;HPM_P2
2023/08/16 00:00:16;;;;;;;3.78;3.33;;;23.10;99.90;;;;;;5043141;28;20201;-69
2023/08/16 00:02:42;;;;;;;3.35;3.13;;;23.10;99.90;;;;;;5039437;28;20186;-69
2023/08/16 00:05:07;;;;;;;3.85;3.55;;;23.10;99.90;;;;;;5064283;28;20240;-69
2023/08/16 00:07:34;;;;;;;3.50;3.20;;;23.10;99.90;;;;;;5055359;28;20183;-69
2023/08/16 00:10:00;;;;;;;3.90;3.50;;;23.10;99.90;;;;;;5072729;28;20676;-69
2023/08/16 00:12:26;;;;;;;3.58;3.28;;;23.10;99.90;;;;;;5044529;28;20187;-69
2023/08/16 00:14:52;;;;;;;3.97;3.67;;;23.10;99.90;;;;;;5028213;28;20206;-70
2023/08/16 00:17:18;;;;;;;3.53;3.22;;;23.10;99.90;;;;;;5037885;28;20244;-69
2023/08/16 00:19:44;;;;;;;3.72;3.42;;;23.10;99.90;;;;;;5031518;28;20190;-69
2023/08/16 00:22:10;;;;;;;3.47;3.17;;;23.10;99.90;;;;;;5064789;28;20198;-70
2023/08/16 00:24:35;;;;;;;3.80;3.50;;;23.10;99.90;;;;;;5036059;28;20203;-70
2023/08/16 00:27:01;;;;;;;3.50;3.20;;;23.10;99.90;;;;;;5048815;28;20186;-70
2023/08/16 00:29:27;;;;;;;3.42;3.13;;;23.10;99.90;;;;;;5019692;28;20205;-70
2023/08/16 00:31:53;;;;;;;4.47;3.40;;;23.10;99.90;;;;;;5039496;28;20197;-70
2023/08/16 00:34:18;;;;;;;2.92;2.65;;;23.00;99.90;;;;;;5030337;28;20209;-70
2023/08/16 00:36:44;;;;;;;3.40;3.20;;;23.00;99.90;;;;;;5057121;28;20566;-69
2023/08/16 00:39:10;;;;;;;4.07;3.55;;;23.00;99.90;;;;;;5052414;28;20557;-69
2023/08/16 00:41:36;;;;;;;3.47;3.17;;;23.10;99.90;;;;;;5048873;28;20186;-69
2023/08/16 00:44:03;;;;;;;3.50;3.20;;;23.00;99.90;;;;;;5039546;28;20256;-70
2023/08/16 00:46:30;;;;;;;3.47;3.28;;;23.10;99.90;;;;;;5047443;28;20272;-70
2023/08/16 00:48:56;;;;;;;3.72;3.22;;;23.00;99.90;;;;;;5048538;28;20190;-69
2023/08/16 00:51:23;;;;;;;3.17;2.95;;;23.10;99.90;;;;;;5051383;28;20225;-70
2023/08/16 00:53:50;;;;;;;3.70;3.40;;;23.00;99.90;;;;;;5031777;28;20211;-70
2023/08/16 00:56:16;;;;;;;3.20;3.00;;;23.00;99.90;;;;;;5051940;28;20182;-69
2023/08/16 00:58:43;;;;;;;3.42;3.13;;;23.00;99.90;;;;;;5047103;28;20300;-70
2023/08/16 01:01:10;;;;;;;3.40;3.10;;;23.00;99.90;;;;;;5054759;28;20193;-70
2023/08/16 01:03:36;;;;;;;3.33;3.08;;;23.10;99.90;;;;;;5030917;28;20292;-70
2023/08/16 01:06:04;;;;;;;3.25;3.05;;;23.10;99.90;;;;;;5065442;28;20198;-70
2023/08/16 01:08:32;;;;;;;3.65;3.35;;;23.00;99.90;;;;;;5043739;28;20194;-69
2023/08/16 01:11:22;;;;;;;3.33;3.13;;;23.10;99.90;;;;;;5033991;28;20182;-69
2023/08/16 01:14:15;;;;;;;3.92;3.63;;;23.00;99.90;;;;;;5049325;28;20213;-70
2023/08/16 01:16:45;;;;;;;3.63;3.30;;;23.00;99.90;;;;;;5049469;28;20194;-70
2023/08/16 01:19:28;;;;;;;3.92;3.35;;;23.00;99.90;;;;;;5035016;28;20204;-70
2023/08/16 01:22:35;;;;;;;3.38;3.17;;;23.00;99.90;;;;;;5043081;28;20194;-70
2023/08/16 01:25:24;;;;;;;3.65;3.38;;;23.00;99.90;;;;;;5061155;28;20262;-70
2023/08/16 01:27:51;;;;;;;3.45;3.15;;;23.00;99.90;;;;;;5024759;28;20193;-70
2023/08/16 01:30:20;;;;;;;3.55;3.33;;;23.00;99.90;;;;;;5022064;28;20190;-70
2023/08/16 01:32:47;;;;;;;3.65;3.30;;;23.00;99.90;;;;;;5038009;28;20652;-69
2023/08/16 01:35:16;;;;;;;3.42;3.13;;;23.00;99.90;;;;;;5054740;28;20217;-70
2023/08/16 01:37:43;;;;;;;3.85;3.55;;;23.00;99.90;;;;;;5049785;28;20210;-70
2023/08/16 01:40:10;;;;;;;3.67;3.38;;;23.00;99.90;;;;;;5051377;28;20323;-69
2023/08/16 01:42:46;;;;;;;3.08;2.88;;;23.00;99.90;;;;;;5042692;28;20231;-70
2023/08/16 01:45:17;;;;;;;3.00;2.80;;;23.00;99.90;;;;;;5042868;28;20689;-70
2023/08/16 01:47:46;;;;;;;3.55;3.25;;;23.00;99.90;;;;;;5047842;28;20189;-70
2023/08/16 01:50:12;;;;;;;3.88;3.58;;;23.00;99.90;;;;;;5051927;28;20194;-70
2023/08/16 01:52:39;;;;;;;4.03;3.63;;;23.00;99.90;;;;;;5054284;28;20224;-70
2023/08/16 01:55:06;;;;;;;3.10;2.90;;;23.00;99.90;;;;;;5046275;28;20221;-70
2023/08/16 01:57:31;;;;;;;3.63;3.33;;;23.00;99.90;;;;;;5037877;28;20206;-69
2023/08/16 01:59:57;;;;;;;3.70;3.30;;;23.00;99.90;;;;;;5034513;28;20239;-70
2023/08/16 02:02:24;;;;;;;3.50;3.20;;;23.00;99.90;;;;;;5033452;28;20185;-68
2023/08/16 02:04:50;;;;;;;3.67;3.38;;;23.00;99.90;;;;;;5034286;28;20213;-69
2023/08/16 02:07:15;;;;;;;3.92;3.55;;;23.00;99.90;;;;;;5034444;28;20289;-69
2023/08/16 02:09:41;;;;;;;3.33;3.03;;;23.00;99.90;;;;;;5042777;28;20285;-70
2023/08/16 02:12:08;;;;;;;3.60;3.30;;;23.00;99.90;;;;;;5030862;28;20198;-69
2023/08/16 02:14:33;;;;;;;3.22;3.03;;;23.00;99.90;;;;;;5042236;28;20202;-70
2023/08/16 02:17:00;;;;;;;3.70;3.40;;;23.00;99.90;;;;;;5050309;28;20783;-70
2023/08/16 02:19:25;;;;;;;3.15;2.95;;;23.00;99.90;;;;;;5035147;28;20281;-70
2023/08/16 02:21:51;;;;;;;3.20;2.97;;;23.00;99.90;;;;;;5025897;28;20263;-69
2023/08/16 02:24:17;;;;;;;3.22;3.00;;;23.00;99.90;;;;;;5017049;28;20206;-70
2023/08/16 02:26:42;;;;;;;3.10;2.80;;;22.90;99.90;;;;;;5017501;28;20186;-70
2023/08/16 02:29:10;;;;;;;3.47;3.17;;;23.00;99.90;;;;;;5047127;28;20187;-69
2023/08/16 02:31:36;;;;;;;3.55;3.25;;;23.00;99.90;;;;;;5029103;28;20205;-70
2023/08/16 02:34:01;;;;;;;3.17;2.88;;;22.90;99.90;;;;;;5052989;28;20206;-70
2023/08/16 02:36:28;;;;;;;3.33;3.03;;;22.90;99.90;;;;;;5041812;28;20178;-68
2023/08/16 02:38:54;;;;;;;3.25;3.05;;;23.00;99.90;;;;;;5026959;28;20270;-69
2023/08/16 02:41:20;;;;;;;3.47;3.28;;;22.90;99.90;;;;;;5049467;28;20285;-70
2023/08/16 02:43:46;;;;;;;3.45;3.25;;;22.90;99.90;;;;;;5040370;28;20659;-69
2023/08/16 02:46:12;;;;;;;3.10;2.90;;;23.00;99.90;;;;;;5036238;28;20188;-69
2023/08/16 02:48:37;;;;;;;3.92;3.30;;;22.90;99.90;;;;;;5046052;28;20194;-69
2023/08/16 02:51:03;;;;;;;3.22;3.03;;;22.90;99.90;;;;;;5033586;28;20190;-69
2023/08/16 02:53:29;;;;;;;3.38;3.17;;;22.90;99.90;;;;;;5024101;28;20221;-69
2023/08/16 02:55:54;;;;;;;3.72;3.42;;;22.90;99.90;;;;;;5044638;28;20197;-68
2023/08/16 02:58:20;;;;;;;3.47;3.20;;;22.90;99.90;;;;;;5041508;28;20217;-68
2023/08/16 03:00:50;;;;;;;3.60;3.30;;;23.00;99.90;;;;;;5036782;28;20189;-69
2023/08/16 03:03:17;;;;;;;3.58;3.38;;;22.90;99.90;;;;;;5036566;28;20260;-68
2023/08/16 03:05:43;;;;;;;3.45;3.25;;;22.90;99.90;;;;;;5045336;28;20208;-69
2023/08/16 03:08:09;;;;;;;3.25;3.05;;;22.90;99.90;;;;;;5041752;28;20194;-69
2023/08/16 03:10:35;;;;;;;3.30;3.10;;;22.90;99.90;;;;;;5033521;28;20198;-69
2023/08/16 03:13:02;;;;;;;3.47;3.28;;;22.90;99.90;;;;;;5053218;28;20185;-69
2023/08/16 03:15:28;;;;;;;3.40;3.20;;;22.90;99.90;;;;;;5034117;28;20258;-69
2023/08/16 03:17:54;;;;;;;3.30;3.10;;;22.90;99.90;;;;;;5050970;28;20214;-69
2023/08/16 03:20:20;;;;;;;3.25;3.05;;;22.90;99.90;;;;;;5033191;28;20793;-70
2023/08/16 03:22:45;;;;;;;3.05;2.83;;;22.90;99.90;;;;;;5025095;28;20190;-69
2023/08/16 03:25:14;;;;;;;3.72;3.42;;;22.90;99.90;;;;;;5030267;28;20593;-69
2023/08/16 03:27:40;;;;;;;3.25;3.05;;;22.90;99.90;;;;;;5029102;28;20182;-69
2023/08/16 03:30:07;;;;;;;3.10;2.90;;;22.90;99.90;;;;;;5045681;28;20194;-69
2023/08/16 03:32:33;;;;;;;3.63;3.30;;;22.90;99.90;;;;;;5032450;28;20232;-68
2023/08/16 03:35:01;;;;;;;3.45;3.15;;;22.90;99.90;;;;;;5025219;28;20214;-69
2023/08/16 03:37:27;;;;;;;3.22;3.03;;;22.90;99.90;;;;;;5033580;28;20218;-68
2023/08/16 03:39:53;;;;;;;3.72;3.42;;;22.90;99.90;;;;;;5022954;28;20194;-70
2023/08/16 03:42:20;;;;;;;3.47;3.17;;;22.90;99.90;;;;;;5033581;28;20197;-68
2023/08/16 03:44:45;;;;;;;3.22;3.03;;;22.90;99.90;;;;;;5028391;28;20202;-69
2023/08/16 03:47:11;;;;;;;3.03;2.83;;;22.90;99.90;;;;;;5031459;28;20190;-69
2023/08/16 03:49:38;;;;;;;3.13;2.92;;;22.90;99.90;;;;;;5039982;28;20190;-69
2023/08/16 03:52:04;;;;;;;3.70;3.40;;;22.90;99.90;;;;;;5041288;28;20363;-69
2023/08/16 03:54:30;;;;;;;3.47;3.20;;;22.90;99.90;;;;;;5039831;28;20311;-69
2023/08/16 03:56:56;;;;;;;3.42;3.13;;;22.90;99.90;;;;;;5045086;28;20206;-69
2023/08/16 03:59:23;;;;;;;3.17;2.97;;;22.90;99.90;;;;;;5022515;28;20187;-69
2023/08/16 04:01:48;;;;;;;3.97;3.67;;;22.90;99.90;;;;;;5049879;28;20201;-69
2023/08/16 04:04:14;;;;;;;3.28;3.05;;;22.90;99.90;;;;;;5055746;28;20213;-69
2023/08/16 04:06:40;;;;;;;3.70;3.40;;;22.90;99.90;;;;;;5048837;28;20204;-70
2023/08/16 04:09:06;;;;;;;3.28;2.97;;;22.90;99.90;;;;;;5048596;28;20194;-69
2023/08/16 04:11:32;;;;;;;3.72;3.42;;;22.90;99.90;;;;;;5063458;28;20189;-69
2023/08/16 04:13:58;;;;;;;3.65;3.40;;;22.90;99.90;;;;;;5034061;28;20213;-69
2023/08/16 04:16:23;;;;;;;3.10;2.80;;;22.90;99.90;;;;;;5046891;28;20200;-69
2023/08/16 04:18:53;;;;;;;3.45;3.15;;;22.90;99.90;;;;;;5044543;28;20647;-69
2023/08/16 04:21:20;;;;;;;3.10;2.90;;;22.90;99.90;;;;;;5037446;28;20277;-70
2023/08/16 04:23:45;;;;;;;3.60;3.28;;;22.90;99.90;;;;;;5035151;28;20202;-69
2023/08/16 04:26:12;;;;;;;3.15;2.95;;;22.90;99.90;;;;;;5044687;28;20186;-69
2023/08/16 04:28:37;;;;;;;3.47;3.17;;;22.90;99.90;;;;;;5044257;28;20190;-70
2023/08/16 04:31:06;;;;;;;3.50;3.20;;;22.80;99.90;;;;;;5042804;28;20265;-69
2023/08/16 04:33:32;;;;;;;3.25;3.00;;;22.90;99.90;;;;;;5039117;28;20212;-69
2023/08/16 04:35:58;;;;;;;3.10;2.90;;;22.90;99.90;;;;;;5030885;28;20232;-67
2023/08/16 04:38:24;;;;;;;2.88;2.63;;;22.80;99.90;;;;;;5045941;28;20218;-69
2023/08/16 04:40:51;;;;;;;3.40;3.20;;;22.80;99.90;;;;;;5037372;28;20179;-68
2023/08/16 04:43:18;;;;;;;3.25;3.05;;;22.90;99.90;;;;;;5032838;28;20289;-69
2023/08/16 04:45:45;;;;;;;3.40;3.20;;;22.90;99.90;;;;;;5049133;28;20178;-69
2023/08/16 04:48:13;;;;;;;3.20;2.95;;;22.90;99.90;;;;;;5051661;28;20307;-69
2023/08/16 04:50:39;;;;;;;3.42;3.17;;;22.80;99.90;;;;;;5030857;28;20190;-69
2023/08/16 04:53:04;;;;;;;3.53;3.20;;;22.90;99.90;;;;;;5052024;28;20195;-68
2023/08/16 04:55:30;;;;;;;3.22;3.03;;;22.90;99.90;;;;;;5038132;28;20240;-69
2023/08/16 04:57:56;;;;;;;3.35;3.15;;;22.90;99.90;;;;;;5047277;28;20209;-69
2023/08/16 05:00:23;;;;;;;3.30;3.10;;;22.90;99.90;;;;;;5054481;28;20177;-69
2023/08/16 05:02:55;;;;;;;2.95;2.70;;;22.90;99.90;;;;;;5045558;28;20175;-69
2023/08/16 05:05:23;;;;;;;4.00;3.25;;;22.90;99.90;;;;;;5028400;28;20240;-69
2023/08/16 05:07:48;;;;;;;3.05;2.85;;;22.80;99.90;;;;;;5026113;28;20194;-69
2023/08/16 05:10:14;;;;;;;3.65;3.35;;;22.90;99.90;;;;;;5048249;28;20225;-69
2023/08/16 05:12:40;;;;;;;3.10;2.88;;;22.80;99.90;;;;;;5059547;28;20182;-69
2023/08/16 05:15:07;;;;;;;3.50;3.20;;;22.80;99.90;;;;;;5022473;28;20574;-70
2023/08/16 05:17:33;;;;;;;2.72;2.53;;;22.80;99.90;;;;;;5067412;28;20293;-69
2023/08/16 05:19:59;;;;;;;3.13;2.83;;;22.80;99.90;;;;;;5040944;28;20201;-69
2023/08/16 05:22:25;;;;;;;3.28;3.08;;;22.80;99.90;;;;;;5054831;28;20205;-69
2023/08/16 05:24:51;;;;;;;3.60;3.30;;;22.80;99.90;;;;;;5055102;28;20224;-69
2023/08/16 05:27:16;;;;;;;3.25;3.05;;;22.80;99.90;;;;;;5056353;28;20186;-69
2023/08/16 05:29:42;;;;;;;3.88;3.05;;;22.90;99.90;;;;;;5021784;28;20200;-69
2023/08/16 05:32:08;;;;;;;2.80;2.60;;;22.80;99.90;;;;;;5053600;28;20181;-69
2023/08/16 05:34:34;;;;;;;3.22;2.92;;;22.80;99.90;;;;;;5053462;28;20210;-69
2023/08/16 05:37:00;;;;;;;3.22;3.03;;;22.80;99.90;;;;;;5024389;28;20221;-69
2023/08/16 05:39:26;;;;;;;3.55;3.25;;;22.80;99.90;;;;;;5042825;28;20190;-68
2023/08/16 05:41:51;;;;;;;3.25;2.88;;;22.80;99.90;;;;;;5035067;28;20183;-69
2023/08/16 05:44:17;;;;;;;3.40;3.15;;;22.80;99.90;;;;;;5042609;28;20693;-68
2023/08/16 05:46:43;;;;;;;3.35;3.05;;;22.80;99.90;;;;;;5051458;28;20193;-69
2023/08/16 05:49:10;;;;;;;3.13;2.92;;;22.80;99.90;;;;;;5046757;28;20576;-69
2023/08/16 05:51:35;;;;;;;3.13;2.92;;;22.80;99.90;;;;;;5066660;28;20193;-68
2023/08/16 05:54:02;;;;;;;2.97;2.78;;;22.80;99.90;;;;;;5047889;28;20710;-69
2023/08/16 05:56:28;;;;;;;3.25;3.00;;;22.80;99.90;;;;;;5036703;28;20182;-69
2023/08/16 05:58:53;;;;;;;3.55;3.28;;;22.80;99.90;;;;;;5042282;28;20206;-69
2023/08/16 06:01:19;;;;;;;3.17;2.97;;;22.80;99.90;;;;;;5063984;28;20238;-69
2023/08/16 06:03:45;;;;;;;3.42;3.05;;;22.80;99.90;;;;;;5025802;28;20300;-69
2023/08/16 06:06:11;;;;;;;3.55;3.35;;;22.80;99.90;;;;;;5054808;28;20214;-69
2023/08/16 06:08:36;;;;;;;3.60;3.35;;;22.80;99.90;;;;;;5051353;28;20198;-69
2023/08/16 06:11:03;;;;;;;3.28;3.08;;;22.80;99.90;;;;;;5063555;28;20189;-69
2023/08/16 06:13:29;;;;;;;3.38;3.08;;;22.80;99.90;;;;;;5027402;28;20695;-69
2023/08/16 06:15:55;;;;;;;3.10;2.83;;;22.80;99.90;;;;;;5052211;28;20190;-68
2023/08/16 06:18:20;;;;;;;3.63;3.33;;;22.80;99.90;;;;;;5047183;28;20211;-69
2023/08/16 06:20:46;;;;;;;3.72;2.97;;;22.80;99.90;;;;;;5065130;28;20190;-69
2023/08/16 06:23:12;;;;;;;3.50;3.20;;;22.80;99.90;;;;;;5050320;28;20178;-68
2023/08/16 06:25:37;;;;;;;3.30;2.97;;;22.80;99.90;;;;;;5040762;28;20187;-69
2023/08/16 06:28:04;;;;;;;3.20;2.90;;;22.80;99.90;;;;;;5033555;28;20190;-69
2023/08/16 06:30:29;;;;;;;3.20;3.00;;;22.80;99.90;;;;;;5035052;28;20239;-69
2023/08/16 06:32:55;;;;;;;3.67;3.30;;;22.80;99.90;;;;;;5045718;28;20206;-69
2023/08/16 06:35:21;;;;;;;3.22;3.03;;;22.80;99.90;;;;;;5063172;28;20205;-68
2023/08/16 06:37:46;;;;;;;3.28;3.08;;;22.80;99.90;;;;;;5036964;28;20209;-69
2023/08/16 06:40:12;;;;;;;3.10;2.90;;;22.80;99.90;;;;;;5062274;28;20190;-69
2023/08/16 06:42:41;;;;;;;3.30;3.00;;;22.80;99.90;;;;;;5043388;28;20208;-68
2023/08/16 06:45:09;;;;;;;3.13;2.92;;;22.80;99.90;;;;;;5017376;28;20313;-69
2023/08/16 06:47:35;;;;;;;3.38;3.17;;;22.80;99.90;;;;;;5050400;28;20201;-68
2023/08/16 06:50:01;;;;;;;3.00;2.80;;;22.80;99.90;;;;;;5048520;28;20190;-69
2023/08/16 06:52:27;;;;;;;3.53;3.22;;;22.80;99.90;;;;;;5025134;28;20661;-68
2023/08/16 06:54:52;;;;;;;3.45;3.15;;;22.80;99.90;;;;;;5054828;28;20217;-69
2023/08/16 06:57:18;;;;;;;3.70;3.42;;;22.80;99.90;;;;;;5053732;28;20546;-69
2023/08/16 06:59:44;;;;;;;3.70;3.40;;;22.80;99.90;;;;;;5053471;28;20189;-69
2023/08/16 07:02:14;;;;;;;3.53;3.28;;;22.80;99.90;;;;;;5050374;28;20264;-68
2023/08/16 07:04:43;;;;;;;3.30;3.10;;;22.80;99.90;;;;;;5035701;28;20203;-68
2023/08/16 07:07:10;;;;;;;3.55;3.25;;;22.90;99.90;;;;;;5050592;28;20189;-68
2023/08/16 07:09:36;;;;;;;3.70;3.40;;;22.80;99.90;;;;;;5034658;28;20193;-69
2023/08/16 07:12:02;;;;;;;3.60;3.30;;;22.90;99.90;;;;;;5041896;28;20185;-68
2023/08/16 07:14:28;;;;;;;3.45;3.20;;;22.90;99.90;;;;;;5043984;28;20220;-68
2023/08/16 07:16:55;;;;;;;3.45;3.15;;;22.80;99.90;;;;;;5029464;28;20191;-68
2023/08/16 07:19:21;;;;;;;3.38;3.08;;;22.90;99.90;;;;;;5046726;28;20665;-68
2023/08/16 07:21:48;;;;;;;3.95;3.30;;;22.90;99.90;;;;;;5045506;28;20183;-68
2023/08/16 07:24:14;;;;;;;3.88;3.33;;;22.90;99.90;;;;;;5057136;28;20293;-67
2023/08/16 07:26:39;;;;;;;3.45;3.22;;;22.90;99.90;;;;;;5043992;28;20273;-68
2023/08/16 07:29:05;;;;;;;3.63;3.33;;;22.90;99.90;;;;;;5053526;28;20192;-68
2023/08/16 07:31:31;;;;;;;3.42;3.13;;;22.90;99.90;;;;;;5053460;28;20197;-68
2023/08/16 07:33:56;;;;;;;3.63;3.33;;;22.90;99.90;;;;;;5037258;28;20684;-68
2023/08/16 07:36:22;;;;;;;3.33;3.13;;;22.90;99.90;;;;;;5043685;28;20186;-68
2023/08/16 07:38:48;;;;;;;3.53;3.22;;;22.90;99.90;;;;;;5062375;28;20213;-69
2023/08/16 07:41:15;;;;;;;3.45;3.15;;;22.90;99.90;;;;;;5056293;28;20183;-68
2023/08/16 07:43:40;;;;;;;3.70;3.40;;;22.90;99.90;;;;;;5045926;28;20201;-68
2023/08/16 07:46:06;;;;;;;3.72;3.42;;;22.90;99.90;;;;;;5034439;28;20188;-68
2023/08/16 07:48:32;;;;;;;3.80;3.50;;;22.90;99.90;;;;;;5047683;28;20185;-68
2023/08/16 07:50:57;;;;;;;3.88;3.58;;;22.90;99.90;;;;;;5035740;28;20179;-68
2023/08/16 07:53:23;;;;;;;3.58;3.28;;;22.90;99.90;;;;;;5063742;28;20235;-68
2023/08/16 07:55:49;;;;;;;3.65;3.35;;;22.90;99.90;;;;;;5045943;28;20222;-68
2023/08/16 07:58:15;;;;;;;4.40;4.00;;;22.90;99.90;;;;;;5054550;28;20210;-67
2023/08/16 08:00:43;;;;;;;3.33;3.10;;;22.90;99.90;;;;;;5065219;28;20197;-68
2023/08/16 08:03:11;;;;;;;3.60;3.35;;;22.90;99.90;;;;;;5042101;28;20190;-67
2023/08/16 08:05:37;;;;;;;4.00;3.70;;;22.90;99.90;;;;;;5055806;28;20194;-68
2023/08/16 08:08:04;;;;;;;3.38;3.13;;;22.90;99.90;;;;;;5042082;28;20197;-68
2023/08/16 08:10:31;;;;;;;3.60;3.30;;;22.90;99.90;;;;;;5044912;28;20190;-69
2023/08/16 08:12:58;;;;;;;3.60;3.30;;;23.00;99.90;;;;;;5045762;28;20277;-69
2023/08/16 08:15:24;;;;;;;4.07;3.75;;;23.00;99.90;;;;;;5062875;28;20187;-68
2023/08/16 08:17:50;;;;;;;4.00;3.70;;;23.00;99.90;;;;;;5036416;28;20317;-69
2023/08/16 08:20:16;;;;;;;3.70;3.40;;;23.00;99.90;;;;;;5036386;28;20262;-69
2023/08/16 08:22:42;;;;;;;4.78;3.88;;;23.00;99.90;;;;;;5053787;28;20189;-68
2023/08/16 08:25:08;;;;;;;3.88;3.47;;;23.00;99.90;;;;;;5053071;28;20206;-68
2023/08/16 08:27:34;;;;;;;4.20;3.83;;;23.10;99.90;;;;;;5052622;28;20248;-69
2023/08/16 08:30:02;;;;;;;4.45;4.05;;;23.10;99.90;;;;;;5058883;28;20193;-69
2023/08/16 08:32:28;;;;;;;3.60;3.30;;;23.10;99.90;;;;;;5046315;28;20194;-68
2023/08/16 08:34:54;;;;;;;4.65;4.25;;;23.10;99.90;;;;;;5036729;28;20210;-68
2023/08/16 08:37:20;;;;;;;4.10;3.80;;;23.10;99.90;;;;;;5036336;28;20207;-68
2023/08/16 08:39:46;;;;;;;4.15;3.75;;;23.10;99.90;;;;;;5052635;28;20240;-68
2023/08/16 08:42:12;;;;;;;3.95;3.65;;;23.10;99.90;;;;;;5047413;28;20187;-68
2023/08/16 08:44:39;;;;;;;4.25;3.95;;;23.10;99.90;;;;;;5060779;28;20213;-68
2023/08/16 08:47:07;;;;;;;4.07;3.78;;;23.10;99.90;;;;;;5058279;28;20186;-68
2023/08/16 08:49:34;;;;;;;6.15;3.92;;;23.10;99.90;;;;;;5051263;28;20187;-69
2023/08/16 08:52:03;;;;;;;4.13;3.80;;;23.10;99.90;;;;;;5061765;28;20190;-67
2023/08/16 08:54:30;;;;;;;4.40;3.97;;;23.10;99.90;;;;;;5039987;28;20197;-68
2023/08/16 08:57:02;;;;;;;4.03;3.72;;;23.10;99.90;;;;;;5043162;28;20232;-67
2023/08/16 08:59:33;;;;;;;4.13;3.80;;;23.10;99.90;;;;;;5048995;28;20266;-68
2023/08/16 09:02:00;;;;;;;4.05;3.65;;;23.10;99.90;;;;;;5051041;28;20261;-68
2023/08/16 09:04:28;;;;;;;4.32;3.92;;;23.10;99.90;;;;;;5043355;28;20201;-68
2023/08/16 09:06:56;;;;;;;4.47;4.07;;;23.10;99.90;;;;;;5035538;28;20178;-67
2023/08/16 09:09:23;;;;;;;3.78;3.47;;;23.10;99.90;;;;;;5047755;28;20186;-67
2023/08/16 09:11:48;;;;;;;3.60;3.30;;;23.10;99.90;;;;;;5046590;28;20264;-68
2023/08/16 09:14:14;;;;;;;4.07;3.78;;;23.10;99.90;;;;;;5026471;28;20214;-66
2023/08/16 09:16:40;;;;;;;4.38;3.47;;;23.10;99.90;;;;;;5033787;28;20224;-68
2023/08/16 09:19:14;;;;;;;4.07;3.67;;;23.10;99.90;;;;;;5028715;28;20213;-68
2023/08/16 09:21:44;;;;;;;4.45;3.88;;;23.10;99.90;;;;;;5033672;28;20191;-68
2023/08/16 09:24:10;;;;;;;3.78;3.47;;;23.10;99.90;;;;;;5024148;28;20202;-68
2023/08/16 09:26:37;;;;;;;4.22;3.90;;;23.10;99.90;;;;;;5046681;28;20256;-68
2023/08/16 09:29:04;;;;;;;3.65;3.35;;;23.10;99.90;;;;;;5067686;28;20194;-67
2023/08/16 09:31:38;;;;;;;3.78;3.47;;;23.10;99.90;;;;;;5051392;28;20218;-68
2023/08/16 09:34:05;;;;;;;4.03;3.72;;;23.10;99.90;;;;;;5042170;28;20201;-68
2023/08/16 09:36:35;;;;;;;4.95;3.63;;;23.10;99.90;;;;;;5049021;28;20209;-67
2023/08/16 09:39:05;;;;;;;4.32;3.92;;;23.10;99.90;;;;;;5037553;28;20206;-67
2023/08/16 09:41:31;;;;;;;4.22;3.83;;;23.10;99.90;;;;;;5043566;28;20273;-67
2023/08/16 09:44:08;;;;;;;4.13;3.83;;;23.10;99.90;;;;;;5049642;28;20206;-68
2023/08/16 09:46:35;;;;;;;4.32;3.72;;;23.10;99.90;;;;;;5060704;28;20185;-68
2023/08/16 09:49:06;;;;;;;3.78;3.47;;;23.10;99.90;;;;;;5047450;28;20186;-67
2023/08/16 09:51:34;;;;;;;4.53;4.13;;;23.10;99.90;;;;;;5051513;28;20186;-67
2023/08/16 09:54:07;;;;;;;4.25;3.80;;;23.10;99.90;;;;;;5024813;28;20210;-68
2023/08/16 09:56:34;;;;;;;4.97;3.95;;;23.10;99.90;;;;;;5060312;28;20189;-68
2023/08/16 09:59:00;;;;;;;4.05;3.70;;;23.20;99.90;;;;;;5033585;28;20217;-68
2023/08/16 10:01:26;;;;;;;3.83;3.38;;;23.20;99.90;;;;;;5017786;28;20186;-68
2023/08/16 10:03:55;;;;;;;4.30;3.78;;;23.20;99.90;;;;;;5036397;28;20256;-68
2023/08/16 10:06:25;;;;;;;4.88;3.85;;;23.10;99.90;;;;;;5046988;28;20243;-68
2023/08/16 10:08:52;;;;;;;4.00;3.70;;;23.20;99.90;;;;;;5050103;28;20186;-67
2023/08/16 10:11:18;;;;;;;4.38;3.97;;;23.10;99.90;;;;;;5029431;28;20248;-67
2023/08/16 10:13:45;;;;;;;4.95;3.65;;;23.20;99.90;;;;;;5040743;28;20211;-68
2023/08/16 10:16:15;;;;;;;4.45;4.05;;;23.20;99.90;;;;;;5057894;28;20186;-68
2023/08/16 10:18:47;;;;;;;3.92;3.63;;;23.10;99.90;;;;;;5052475;28;20285;-67
2023/08/16 10:21:17;;;;;;;3.85;3.55;;;23.20;99.90;;;;;;5034652;28;20182;-67
2023/08/16 10:23:44;;;;;;;4.75;3.70;;;23.20;99.90;;;;;;5020048;28;20275;-68
2023/08/16 10:26:17;;;;;;;4.00;3.70;;;23.20;99.90;;;;;;5034086;28;20190;-68
2023/08/16 10:28:50;;;;;;;4.07;3.78;;;23.20;99.90;;;;;;5037860;28;20202;-68
2023/08/16 10:31:24;;;;;;;3.92;3.53;;;23.20;99.90;;;;;;5046358;28;20218;-68
2023/08/16 10:33:55;;;;;;;3.90;3.60;;;23.20;99.90;;;;;;5053311;28;20696;-68
2023/08/16 10:36:22;;;;;;;4.10;3.75;;;23.20;99.90;;;;;;5046509;28;20256;-68
2023/08/16 10:38:57;;;;;;;3.72;3.42;;;23.20;99.90;;;;;;5033503;28;20207;-67
2023/08/16 10:41:23;;;;;;;4.03;3.72;;;23.20;99.90;;;;;;5051789;28;20182;-67
2023/08/16 10:43:51;;;;;;;3.65;3.35;;;23.20;99.90;;;;;;5051862;28;20248;-67
2023/08/16 10:46:31;;;;;;;3.95;3.65;;;23.20;99.90;;;;;;5048080;28;20190;-68
2023/08/16 10:49:00;;;;;;;3.70;3.47;;;23.20;99.90;;;;;;5054454;28;20182;-68
2023/08/16 10:51:26;;;;;;;4.00;3.70;;;23.20;99.90;;;;;;5040386;28;20218;-68
2023/08/16 10:53:56;;;;;;;3.28;3.00;;;23.20;99.90;;;;;;5032579;28;20313;-68
2023/08/16 10:56:22;;;;;;;4.20;3.90;;;23.20;99.90;;;;;;5054680;28;20217;-68
2023/08/16 10:58:50;;;;;;;4.43;4.03;;;23.20;99.90;;;;;;5040084;28;20210;-68
2023/08/16 11:01:18;;;;;;;4.13;3.72;;;23.20;99.90;;;;;;5039198;28;20182;-67
2023/08/16 11:03:46;;;;;;;5.25;4.80;;;23.20;99.90;;;;;;5058206;28;20205;-68
2023/08/16 11:06:14;;;;;;;5.90;5.30;;;23.20;99.90;;;;;;5059609;28;20193;-68
2023/08/16 11:08:43;;;;;;;5.25;4.85;;;23.20;99.90;;;;;;5048695;28;20198;-68
2023/08/16 11:11:13;;;;;;;5.13;4.72;;;23.20;99.90;;;;;;5053330;28;20177;-68
2023/08/16 11:13:41;;;;;;;5.30;4.90;;;23.20;99.90;;;;;;5035843;28;20209;-67
2023/08/16 11:16:10;;;;;;;5.65;5.22;;;23.20;99.90;;;;;;5045194;28;20189;-69
2023/08/16 11:18:37;;;;;;;4.05;3.75;;;23.30;99.90;;;;;;5060998;28;20214;-69
2023/08/16 11:21:07;;;;;;;4.88;4.50;;;23.30;99.90;;;;;;5052762;28;20193;-68
2023/08/16 11:23:39;;;;;;;4.85;4.40;;;23.20;99.90;;;;;;5042922;28;20206;-68
2023/08/16 11:26:08;;;;;;;4.50;4.18;;;23.30;99.90;;;;;;5033605;28;20186;-68
2023/08/16 11:28:35;;;;;;;4.93;4.53;;;23.30;99.90;;;;;;5041821;28;20190;-68
2023/08/16 11:31:04;;;;;;;4.85;4.45;;;23.20;99.90;;;;;;5041398;28;20243;-68
2023/08/16 11:33:43;;;;;;;5.07;4.57;;;23.20;99.90;;;;;;5059647;28;20201;-69
2023/08/16 11:36:12;;;;;;;5.15;4.65;;;23.20;99.90;;;;;;5040153;28;20186;-68
2023/08/16 11:38:41;;;;;;;4.32;4.03;;;23.20;99.90;;;;;;5050236;28;20206;-68
2023/08/16 11:41:07;;;;;;;5.53;4.28;;;23.20;99.90;;;;;;5048510;28;20175;-68
2023/08/16 11:43:35;;;;;;;5.03;4.22;;;23.20;99.90;;;;;;5035147;28;20197;-68
2023/08/16 11:46:02;;;;;;;4.07;3.78;;;23.30;99.90;;;;;;5049640;28;20265;-68
2023/08/16 11:48:35;;;;;;;4.60;4.25;;;23.30;99.90;;;;;;5037513;28;20194;-67
2023/08/16 11:51:02;;;;;;;4.38;4.07;;;23.30;99.90;;;;;;5051181;28;20199;-69
2023/08/16 11:53:36;;;;;;;4.28;3.95;;;23.30;99.90;;;;;;5031530;28;20202;-68
2023/08/16 11:56:05;;;;;;;4.25;3.95;;;23.30;99.90;;;;;;5049148;28;20189;-67
2023/08/16 11:58:46;;;;;;;4.30;3.95;;;23.30;99.90;;;;;;5036847;28;20210;-69
2023/08/16 12:01:21;;;;;;;4.90;4.18;;;23.30;99.90;;;;;;5052962;28;20278;-68
2023/08/16 12:03:46;;;;;;;4.53;4.13;;;23.30;99.90;;;;;;5041130;28;20210;-69
2023/08/16 12:06:13;;;;;;;4.50;4.10;;;23.30;99.90;;;;;;5036434;28;20219;-68
2023/08/16 12:08:53;;;;;;;4.47;4.13;;;23.30;99.90;;;;;;5052389;28;20194;-68
2023/08/16 12:11:33;;;;;;;4.72;4.20;;;23.30;99.90;;;;;;5042417;28;20664;-68
2023/08/16 12:14:01;;;;;;;4.20;3.90;;;23.30;99.90;;;;;;5027959;28;20202;-69
2023/08/16 12:16:27;;;;;;;4.13;3.70;;;23.30;99.90;;;;;;5021543;28;20566;-68
2023/08/16 12:18:53;;;;;;;4.65;4.25;;;23.30;99.90;;;;;;5044091;28;20213;-68
2023/08/16 12:21:19;;;;;;;4.43;4.13;;;23.30;99.90;;;;;;5036704;28;20190;-67
2023/08/16 12:23:46;;;;;;;4.32;4.03;;;23.30;99.90;;;;;;5044261;28;20596;-69
2023/08/16 12:26:15;;;;;;;4.68;4.28;;;23.30;99.90;;;;;;5036282;28;20175;-68
2023/08/16 12:28:42;;;;;;;4.00;3.70;;;23.30;99.90;;;;;;5031389;28;20301;-68
2023/08/16 12:31:08;;;;;;;4.35;3.95;;;23.30;99.90;;;;;;5045434;28;20186;-69
2023/08/16 12:33:33;;;;;;;4.28;3.97;;;23.30;99.90;;;;;;5039451;28;20202;-68
2023/08/16 12:35:59;;;;;;;3.92;3.63;;;23.30;99.90;;;;;;5062530;28;20188;-68
2023/08/16 12:38:25;;;;;;;4.28;3.88;;;23.30;99.90;;;;;;5027674;28;20201;-68
2023/08/16 12:40:51;;;;;;;4.00;3.60;;;23.30;99.90;;;;;;5054104;28;20197;-68
2023/08/16 12:43:18;;;;;;;4.63;4.22;;;23.30;99.90;;;;;;5029917;28;20178;-68
2023/08/16 12:45:45;;;;;;;4.05;3.70;;;23.30;99.90;;;;;;5033204;28;20193;-68
2023/08/16 12:48:11;;;;;;;4.20;3.78;;;23.30;99.90;;;;;;5053563;28;20187;-68